sensor_id;sensor_type;location;lat;lon;timestamp;temperature;humidity
46416;DHT22;32620;51.704;7.822;2022-11-12T00:00:31;3.30;99.90
46416;DHT22;32620;51.704;7.822;2022-11-12T00:02:57;3.20;99.90
46416;DHT22;32620;51.704;7.822;2022-11-12T00:05:22;3.20;99.90
46416;DHT22;32620;51.704;7.822;2022-11-12T00:07:48;3.20;99.90
46416;DHT22;32620;51.704;7.822;2022-11-12T00:10:13;3.10;99.90
46416;DHT22;32620;51.704;7.822;2022-11-12T00:12:39;3.10;99.90
46416;DHT22;32620;51.704;7.822;2022-11-12T00:15:04;3.10;99.90
46416;DHT22;32620;51.704;7.822;2022-11-12T00:17:30;3.10;99.90
46416;DHT22;32620;51.704;7.822;2022-11-12T00:19:55;3.10;99.90
46416;DHT22;32620;51.704;7.822;2022-11-12T00:22:21;3.00;99.90
46416;DHT22;32620;51.704;7.822;2022-11-12T00:24:46;3.00;99.90
46416;DHT22;32620;51.704;7.822;2022-11-12T00:27:12;3.00;99.90
46416;DHT22;32620;51.704;7.822;2022-11-12T00:29:38;3.00;99.90
46416;DHT22;32620;51.704;7.822;2022-11-12T00:32:07;2.90;99.90
46416;DHT22;32620;51.704;7.822;2022-11-12T00:34:33;2.90;99.90
46416;DHT22;32620;51.704;7.822;2022-11-12T00:36:59;2.90;99.90
46416;DHT22;32620;51.704;7.822;2022-11-12T00:39:24;2.90;99.90
46416;DHT22;32620;51.704;7.822;2022-11-12T00:41:50;2.90;99.90
46416;DHT22;32620;51.704;7.822;2022-11-12T00:44:15;2.80;99.90
46416;DHT22;32620;51.704;7.822;2022-11-12T00:46:41;2.80;99.90
46416;DHT22;32620;51.704;7.822;2022-11-12T00:49:06;2.80;99.90
46416;DHT22;32620;51.704;7.822;2022-11-12T00:51:32;2.80;99.90
46416;DHT22;32620;51.704;7.822;2022-11-12T00:53:57;2.80;99.90
46416;DHT22;32620;51.704;7.822;2022-11-12T00:56:23;2.70;99.90
46416;DHT22;32620;51.704;7.822;2022-11-12T00:58:48;2.70;99.90
46416;DHT22;32620;51.704;7.822;2022-11-12T01:01:14;2.70;99.90
46416;DHT22;32620;51.704;7.822;2022-11-12T01:03:40;2.70;99.90
46416;DHT22;32620;51.704;7.822;2022-11-12T01:06:07;2.70;99.90
46416;DHT22;32620;51.704;7.822;2022-11-12T01:08:33;2.70;99.90
46416;DHT22;32620;51.704;7.822;2022-11-12T01:11:15;2.70;99.90
46416;DHT22;32620;51.704;7.822;2022-11-12T01:13:41;2.70;99.90
46416;DHT22;32620;51.704;7.822;2022-11-12T01:16:08;2.60;99.90
46416;DHT22;32620;51.704;7.822;2022-11-12T01:18:34;2.60;99.90
46416;DHT22;32620;51.704;7.822;2022-11-12T01:21:00;2.60;99.90
46416;DHT22;32620;51.704;7.822;2022-11-12T01:23:26;2.50;99.90
46416;DHT22;32620;51.704;7.822;2022-11-12T01:25:52;2.50;99.90
46416;DHT22;32620;51.704;7.822;2022-11-12T01:28:17;2.50;99.90
46416;DHT22;32620;51.704;7.822;2022-11-12T01:30:42;2.40;99.90
46416;DHT22;32620;51.704;7.822;2022-11-12T01:33:08;2.50;99.90
46416;DHT22;32620;51.704;7.822;2022-11-12T01:35:33;2.50;99.90
46416;DHT22;32620;51.704;7.822;2022-11-12T01:37:59;2.50;99.90
46416;DHT22;32620;51.704;7.822;2022-11-12T01:40:24;2.50;99.90
46416;DHT22;32620;51.704;7.822;2022-11-12T01:42:50;2.50;99.90
46416;DHT22;32620;51.704;7.822;2022-11-12T01:45:16;2.50;99.90
46416;DHT22;32620;51.704;7.822;2022-11-12T01:47:42;2.40;99.90
46416;DHT22;32620;51.704;7.822;2022-11-12T01:52:49;2.30;99.90
46416;DHT22;32620;51.704;7.822;2022-11-12T01:55:17;2.40;99.90
46416;DHT22;32620;51.704;7.822;2022-11-12T01:57:47;2.40;99.90
46416;DHT22;32620;51.704;7.822;2022-11-12T02:00:13;2.40;99.90
46416;DHT22;32620;51.704;7.822;2022-11-12T02:02:39;2.40;99.90
46416;DHT22;32620;51.704;7.822;2022-11-12T02:05:09;2.30;99.90
46416;DHT22;32620;51.704;7.822;2022-11-12T02:07:35;2.40;99.90
46416;DHT22;32620;51.704;7.822;2022-11-12T02:10:01;2.30;99.90
46416;DHT22;32620;51.704;7.822;2022-11-12T02:12:27;2.30;99.90
46416;DHT22;32620;51.704;7.822;2022-11-12T02:15:13;2.30;99.90
46416;DHT22;32620;51.704;7.822;2022-11-12T02:17:38;2.30;99.90
46416;DHT22;32620;51.704;7.822;2022-11-12T02:20:06;2.30;99.90
46416;DHT22;32620;51.704;7.822;2022-11-12T02:22:32;2.30;99.90
46416;DHT22;32620;51.704;7.822;2022-11-12T02:24:58;2.30;99.90
46416;DHT22;32620;51.704;7.822;2022-11-12T02:27:23;2.30;99.90
46416;DHT22;32620;51.704;7.822;2022-11-12T02:29:49;2.20;99.90
46416;DHT22;32620;51.704;7.822;2022-11-12T02:32:14;2.20;99.90
46416;DHT22;32620;51.704;7.822;2022-11-12T02:34:40;2.30;99.90
46416;DHT22;32620;51.704;7.822;2022-11-12T02:37:06;2.20;99.90
46416;DHT22;32620;51.704;7.822;2022-11-12T02:39:31;2.20;99.90
46416;DHT22;32620;51.704;7.822;2022-11-12T02:41:57;2.20;99.90
46416;DHT22;32620;51.704;7.822;2022-11-12T02:44:23;2.20;99.90
46416;DHT22;32620;51.704;7.822;2022-11-12T02:46:48;2.20;99.90
46416;DHT22;32620;51.704;7.822;2022-11-12T02:49:13;2.20;99.90
46416;DHT22;32620;51.704;7.822;2022-11-12T02:51:39;2.20;99.90
46416;DHT22;32620;51.704;7.822;2022-11-12T02:54:04;2.10;99.90
46416;DHT22;32620;51.704;7.822;2022-11-12T02:56:30;2.20;99.90
46416;DHT22;32620;51.704;7.822;2022-11-12T02:58:55;2.10;99.90
46416;DHT22;32620;51.704;7.822;2022-11-12T03:01:21;2.10;99.90
46416;DHT22;32620;51.704;7.822;2022-11-12T03:03:46;2.10;99.90
46416;DHT22;32620;51.704;7.822;2022-11-12T03:06:12;2.10;99.90
46416;DHT22;32620;51.704;7.822;2022-11-12T03:08:37;2.10;99.90
46416;DHT22;32620;51.704;7.822;2022-11-12T03:11:11;2.10;99.90
46416;DHT22;32620;51.704;7.822;2022-11-12T03:13:37;2.10;99.90
46416;DHT22;32620;51.704;7.822;2022-11-12T03:16:03;2.10;99.90
46416;DHT22;32620;51.704;7.822;2022-11-12T03:18:28;2.10;99.90
46416;DHT22;32620;51.704;7.822;2022-11-12T03:20:54;2.00;99.90
46416;DHT22;32620;51.704;7.822;2022-11-12T03:23:19;2.10;99.90
46416;DHT22;32620;51.704;7.822;2022-11-12T03:25:44;2.10;99.90
46416;DHT22;32620;51.704;7.822;2022-11-12T03:28:11;2.10;99.90
46416;DHT22;32620;51.704;7.822;2022-11-12T03:30:38;2.10;99.90
46416;DHT22;32620;51.704;7.822;2022-11-12T03:33:04;2.20;99.90
46416;DHT22;32620;51.704;7.822;2022-11-12T03:35:30;2.30;99.90
46416;DHT22;32620;51.704;7.822;2022-11-12T03:37:56;2.40;99.90
46416;DHT22;32620;51.704;7.822;2022-11-12T03:40:22;2.40;99.90
46416;DHT22;32620;51.704;7.822;2022-11-12T03:42:48;2.50;99.90
46416;DHT22;32620;51.704;7.822;2022-11-12T03:45:15;2.50;99.90
46416;DHT22;32620;51.704;7.822;2022-11-12T03:47:42;2.50;99.90
46416;DHT22;32620;51.704;7.822;2022-11-12T03:50:08;2.50;99.90
46416;DHT22;32620;51.704;7.822;2022-11-12T03:52:34;2.50;99.90
46416;DHT22;32620;51.704;7.822;2022-11-12T03:55:00;2.60;99.90
46416;DHT22;32620;51.704;7.822;2022-11-12T03:57:25;2.60;99.90
46416;DHT22;32620;51.704;7.822;2022-11-12T03:59:51;2.60;99.90
46416;DHT22;32620;51.704;7.822;2022-11-12T04:02:16;2.60;99.90
46416;DHT22;32620;51.704;7.822;2022-11-12T04:04:42;2.60;99.90
46416;DHT22;32620;51.704;7.822;2022-11-12T04:07:27;2.60;99.90
46416;DHT22;32620;51.704;7.822;2022-11-12T04:10:12;2.50;99.90
46416;DHT22;32620;51.704;7.822;2022-11-12T04:12:38;2.40;99.90
46416;DHT22;32620;51.704;7.822;2022-11-12T04:15:23;2.30;99.90
46416;DHT22;32620;51.704;7.822;2022-11-12T04:17:49;2.20;99.90
46416;DHT22;32620;51.704;7.822;2022-11-12T04:20:34;2.20;99.90
46416;DHT22;32620;51.704;7.822;2022-11-12T04:23:19;2.20;99.90
46416;DHT22;32620;51.704;7.822;2022-11-12T04:25:45;2.10;99.90
46416;DHT22;32620;51.704;7.822;2022-11-12T04:28:30;2.10;99.90
46416;DHT22;32620;51.704;7.822;2022-11-12T04:30:56;2.00;99.90
46416;DHT22;32620;51.704;7.822;2022-11-12T04:33:21;2.00;99.90
46416;DHT22;32620;51.704;7.822;2022-11-12T04:35:47;2.00;99.90
46416;DHT22;32620;51.704;7.822;2022-11-12T04:38:12;2.00;99.90
46416;DHT22;32620;51.704;7.822;2022-11-12T04:40:37;1.90;99.90
46416;DHT22;32620;51.704;7.822;2022-11-12T04:43:23;1.90;99.90
46416;DHT22;32620;51.704;7.822;2022-11-12T04:46:08;1.90;99.90
46416;DHT22;32620;51.704;7.822;2022-11-12T04:48:34;1.80;99.90
46416;DHT22;32620;51.704;7.822;2022-11-12T04:51:01;1.80;99.90
46416;DHT22;32620;51.704;7.822;2022-11-12T04:53:27;1.80;99.90
46416;DHT22;32620;51.704;7.822;2022-11-12T04:55:54;1.80;99.90
46416;DHT22;32620;51.704;7.822;2022-11-12T04:58:19;1.80;99.90
46416;DHT22;32620;51.704;7.822;2022-11-12T05:00:45;1.80;99.90
46416;DHT22;32620;51.704;7.822;2022-11-12T05:03:11;1.90;99.90
46416;DHT22;32620;51.704;7.822;2022-11-12T05:05:37;1.80;99.90
46416;DHT22;32620;51.704;7.822;2022-11-12T05:08:02;1.90;99.90
46416;DHT22;32620;51.704;7.822;2022-11-12T05:10:28;1.90;99.90
46416;DHT22;32620;51.704;7.822;2022-11-12T05:12:53;1.80;99.90
46416;DHT22;32620;51.704;7.822;2022-11-12T05:15:19;1.80;99.90
46416;DHT22;32620;51.704;7.822;2022-11-12T05:17:44;1.80;99.90
46416;DHT22;32620;51.704;7.822;2022-11-12T05:20:11;1.80;99.90
46416;DHT22;32620;51.704;7.822;2022-11-12T05:22:36;1.80;99.90
46416;DHT22;32620;51.704;7.822;2022-11-12T05:25:02;1.70;99.90
46416;DHT22;32620;51.704;7.822;2022-11-12T05:27:27;1.70;99.90
46416;DHT22;32620;51.704;7.822;2022-11-12T05:29:53;1.70;99.90
46416;DHT22;32620;51.704;7.822;2022-11-12T05:32:18;1.70;99.90
46416;DHT22;32620;51.704;7.822;2022-11-12T05:34:44;1.70;99.90
46416;DHT22;32620;51.704;7.822;2022-11-12T05:37:10;1.70;99.90
46416;DHT22;32620;51.704;7.822;2022-11-12T05:39:36;1.70;99.90
46416;DHT22;32620;51.704;7.822;2022-11-12T05:42:01;1.70;99.90
46416;DHT22;32620;51.704;7.822;2022-11-12T05:44:27;1.70;99.90
46416;DHT22;32620;51.704;7.822;2022-11-12T05:46:53;1.70;99.90
46416;DHT22;32620;51.704;7.822;2022-11-12T05:49:18;1.70;99.90
46416;DHT22;32620;51.704;7.822;2022-11-12T05:51:43;1.70;99.90
46416;DHT22;32620;51.704;7.822;2022-11-12T05:54:09;1.70;99.90
46416;DHT22;32620;51.704;7.822;2022-11-12T05:56:35;1.60;99.90
46416;DHT22;32620;51.704;7.822;2022-11-12T05:59:02;1.70;99.90
46416;DHT22;32620;51.704;7.822;2022-11-12T06:01:28;1.70;99.90
46416;DHT22;32620;51.704;7.822;2022-11-12T06:03:54;1.70;99.90
46416;DHT22;32620;51.704;7.822;2022-11-12T06:06:19;1.80;99.90
46416;DHT22;32620;51.704;7.822;2022-11-12T06:08:45;1.80;99.90
46416;DHT22;32620;51.704;7.822;2022-11-12T06:11:10;1.80;99.90
46416;DHT22;32620;51.704;7.822;2022-11-12T06:13:35;1.80;99.90
46416;DHT22;32620;51.704;7.822;2022-11-12T06:16:01;1.70;99.90
46416;DHT22;32620;51.704;7.822;2022-11-12T06:18:26;1.70;99.90
46416;DHT22;32620;51.704;7.822;2022-11-12T06:20:52;1.80;99.90
46416;DHT22;32620;51.704;7.822;2022-11-12T06:23:37;1.80;99.90
46416;DHT22;32620;51.704;7.822;2022-11-12T06:26:03;1.80;99.90
46416;DHT22;32620;51.704;7.822;2022-11-12T06:28:28;1.80;99.90
46416;DHT22;32620;51.704;7.822;2022-11-12T06:30:54;1.70;99.90
46416;DHT22;32620;51.704;7.822;2022-11-12T06:33:20;1.70;99.90
46416;DHT22;32620;51.704;7.822;2022-11-12T06:35:45;1.80;99.90
46416;DHT22;32620;51.704;7.822;2022-11-12T06:38:11;1.80;99.90
46416;DHT22;32620;51.704;7.822;2022-11-12T06:40:36;1.80;99.90
46416;DHT22;32620;51.704;7.822;2022-11-12T06:43:02;1.80;99.90
46416;DHT22;32620;51.704;7.822;2022-11-12T06:45:27;1.80;99.90
46416;DHT22;32620;51.704;7.822;2022-11-12T06:47:56;1.80;99.90
46416;DHT22;32620;51.704;7.822;2022-11-12T06:50:22;1.80;99.90
46416;DHT22;32620;51.704;7.822;2022-11-12T06:52:47;1.80;99.90
46416;DHT22;32620;51.704;7.822;2022-11-12T06:55:13;1.90;99.90
46416;DHT22;32620;51.704;7.822;2022-11-12T06:57:38;1.90;99.90
46416;DHT22;32620;51.704;7.822;2022-11-12T07:00:04;2.00;99.90
46416;DHT22;32620;51.704;7.822;2022-11-12T07:02:29;2.00;99.90
46416;DHT22;32620;51.704;7.822;2022-11-12T07:04:55;2.10;99.90
46416;DHT22;32620;51.704;7.822;2022-11-12T07:07:20;2.20;99.90
46416;DHT22;32620;51.704;7.822;2022-11-12T07:09:45;2.20;99.90
46416;DHT22;32620;51.704;7.822;2022-11-12T07:12:11;2.30;99.90
46416;DHT22;32620;51.704;7.822;2022-11-12T07:14:36;2.40;99.90
46416;DHT22;32620;51.704;7.822;2022-11-12T07:17:02;2.50;99.90
46416;DHT22;32620;51.704;7.822;2022-11-12T07:19:27;2.60;99.90
46416;DHT22;32620;51.704;7.822;2022-11-12T07:21:53;2.70;99.90
46416;DHT22;32620;51.704;7.822;2022-11-12T07:24:18;2.90;99.90
46416;DHT22;32620;51.704;7.822;2022-11-12T07:26:44;3.50;99.90
46416;DHT22;32620;51.704;7.822;2022-11-12T07:29:10;4.10;99.90
46416;DHT22;32620;51.704;7.822;2022-11-12T07:31:35;4.80;99.90
46416;DHT22;32620;51.704;7.822;2022-11-12T07:34:00;5.20;99.90
46416;DHT22;32620;51.704;7.822;2022-11-12T07:36:27;5.50;99.90
46416;DHT22;32620;51.704;7.822;2022-11-12T07:38:52;5.30;99.90
46416;DHT22;32620;51.704;7.822;2022-11-12T07:41:19;4.90;99.90
46416;DHT22;32620;51.704;7.822;2022-11-12T07:43:45;5.00;99.90
46416;DHT22;32620;51.704;7.822;2022-11-12T07:46:13;5.30;99.90
46416;DHT22;32620;51.704;7.822;2022-11-12T07:48:39;6.00;99.90
46416;DHT22;32620;51.704;7.822;2022-11-12T07:51:06;6.80;99.90
46416;DHT22;32620;51.704;7.822;2022-11-12T07:53:32;7.40;99.90
46416;DHT22;32620;51.704;7.822;2022-11-12T07:55:59;8.10;99.90
46416;DHT22;32620;51.704;7.822;2022-11-12T07:58:26;8.90;99.90
46416;DHT22;32620;51.704;7.822;2022-11-12T08:00:51;9.50;99.90
46416;DHT22;32620;51.704;7.822;2022-11-12T08:03:17;10.00;99.90
46416;DHT22;32620;51.704;7.822;2022-11-12T08:05:43;10.60;99.90
46416;DHT22;32620;51.704;7.822;2022-11-12T08:08:08;11.00;99.90
46416;DHT22;32620;51.704;7.822;2022-11-12T08:10:35;11.10;99.90
46416;DHT22;32620;51.704;7.822;2022-11-12T08:13:00;10.90;99.90
46416;DHT22;32620;51.704;7.822;2022-11-12T08:15:26;11.00;99.90
46416;DHT22;32620;51.704;7.822;2022-11-12T08:17:51;11.70;99.90
46416;DHT22;32620;51.704;7.822;2022-11-12T08:20:17;11.70;99.90
46416;DHT22;32620;51.704;7.822;2022-11-12T08:22:42;11.90;99.90
46416;DHT22;32620;51.704;7.822;2022-11-12T08:25:08;12.50;99.90
46416;DHT22;32620;51.704;7.822;2022-11-12T08:27:33;12.20;99.90
46416;DHT22;32620;51.704;7.822;2022-11-12T08:29:59;11.70;99.90
46416;DHT22;32620;51.704;7.822;2022-11-12T08:32:24;10.70;99.90
46416;DHT22;32620;51.704;7.822;2022-11-12T08:34:50;10.10;99.90
46416;DHT22;32620;51.704;7.822;2022-11-12T08:37:15;9.60;99.90
46416;DHT22;32620;51.704;7.822;2022-11-12T08:39:41;9.30;99.90
46416;DHT22;32620;51.704;7.822;2022-11-12T08:42:06;9.50;99.90
46416;DHT22;32620;51.704;7.822;2022-11-12T08:44:32;10.40;99.90
46416;DHT22;32620;51.704;7.822;2022-11-12T08:46:57;11.50;99.90
46416;DHT22;32620;51.704;7.822;2022-11-12T08:49:23;13.30;99.90
46416;DHT22;32620;51.704;7.822;2022-11-12T08:51:49;14.00;99.90
46416;DHT22;32620;51.704;7.822;2022-11-12T08:54:15;14.50;99.90
46416;DHT22;32620;51.704;7.822;2022-11-12T08:56:40;14.80;99.90
46416;DHT22;32620;51.704;7.822;2022-11-12T08:59:05;15.10;99.90
46416;DHT22;32620;51.704;7.822;2022-11-12T09:01:31;15.50;99.90
46416;DHT22;32620;51.704;7.822;2022-11-12T09:03:56;15.60;99.90
46416;DHT22;32620;51.704;7.822;2022-11-12T09:06:22;16.10;99.90
46416;DHT22;32620;51.704;7.822;2022-11-12T09:08:48;16.80;99.90
46416;DHT22;32620;51.704;7.822;2022-11-12T09:11:13;16.90;99.90
46416;DHT22;32620;51.704;7.822;2022-11-12T09:13:38;16.60;99.90
46416;DHT22;32620;51.704;7.822;2022-11-12T09:16:05;16.30;99.90
46416;DHT22;32620;51.704;7.822;2022-11-12T09:18:31;16.60;99.90
46416;DHT22;32620;51.704;7.822;2022-11-12T09:20:58;16.90;99.90
46416;DHT22;32620;51.704;7.822;2022-11-12T09:23:24;16.90;99.60
46416;DHT22;32620;51.704;7.822;2022-11-12T09:25:50;17.30;99.60
46416;DHT22;32620;51.704;7.822;2022-11-12T09:28:16;17.80;97.70
46416;DHT22;32620;51.704;7.822;2022-11-12T09:30:43;17.70;97.20
46416;DHT22;32620;51.704;7.822;2022-11-12T09:33:11;17.90;97.60
46416;DHT22;32620;51.704;7.822;2022-11-12T09:35:36;17.30;98.00
46416;DHT22;32620;51.704;7.822;2022-11-12T09:38:02;17.60;97.80
46416;DHT22;32620;51.704;7.822;2022-11-12T09:40:31;17.40;97.60
46416;DHT22;32620;51.704;7.822;2022-11-12T09:43:07;17.80;97.00
46416;DHT22;32620;51.704;7.822;2022-11-12T09:45:33;17.30;97.30
46416;DHT22;32620;51.704;7.822;2022-11-12T09:48:01;16.70;97.70
46416;DHT22;32620;51.704;7.822;2022-11-12T09:50:28;16.90;98.70
46416;DHT22;32620;51.704;7.822;2022-11-12T09:52:59;17.50;99.20
46416;DHT22;32620;51.704;7.822;2022-11-12T09:55:29;18.20;96.60
46416;DHT22;32620;51.704;7.822;2022-11-12T09:57:56;17.50;96.60
46416;DHT22;32620;51.704;7.822;2022-11-12T10:00:21;17.20;97.60
46416;DHT22;32620;51.704;7.822;2022-11-12T10:05:36;18.10;95.90
46416;DHT22;32620;51.704;7.822;2022-11-12T10:08:19;17.80;96.70
46416;DHT22;32620;51.704;7.822;2022-11-12T10:10:49;17.90;96.50
46416;DHT22;32620;51.704;7.822;2022-11-12T10:24:11;17.70;96.20
46416;DHT22;32620;51.704;7.822;2022-11-12T10:26:37;18.10;95.50
46416;DHT22;32620;51.704;7.822;2022-11-12T10:31:48;18.90;93.40
46416;DHT22;32620;51.704;7.822;2022-11-12T10:34:16;19.10;93.50
46416;DHT22;32620;51.704;7.822;2022-11-12T10:36:44;19.40;93.20
46416;DHT22;32620;51.704;7.822;2022-11-12T10:39:29;18.90;93.00
46416;DHT22;32620;51.704;7.822;2022-11-12T10:42:10;19.00;93.10
46416;DHT22;32620;51.704;7.822;2022-11-12T10:44:37;18.70;92.70
46416;DHT22;32620;51.704;7.822;2022-11-12T10:47:34;18.70;92.60
46416;DHT22;32620;51.704;7.822;2022-11-12T10:52:33;19.20;91.50
46416;DHT22;32620;51.704;7.822;2022-11-12T10:55:04;19.50;90.80
46416;DHT22;32620;51.704;7.822;2022-11-12T10:57:30;19.60;89.70
46416;DHT22;32620;51.704;7.822;2022-11-12T11:02:50;18.60;91.10
46416;DHT22;32620;51.704;7.822;2022-11-12T11:05:32;17.60;93.10
46416;DHT22;32620;51.704;7.822;2022-11-12T11:07:58;17.50;94.00
46416;DHT22;32620;51.704;7.822;2022-11-12T11:10:28;17.60;94.00
46416;DHT22;32620;51.704;7.822;2022-11-12T11:13:13;17.90;94.60
46416;DHT22;32620;51.704;7.822;2022-11-12T11:15:39;17.80;94.00
46416;DHT22;32620;51.704;7.822;2022-11-12T11:18:07;17.60;94.90
46416;DHT22;32620;51.704;7.822;2022-11-12T11:20:34;17.40;95.00
46416;DHT22;32620;51.704;7.822;2022-11-12T11:23:03;17.40;95.80
46416;DHT22;32620;51.704;7.822;2022-11-12T11:25:31;17.30;95.80
46416;DHT22;32620;51.704;7.822;2022-11-12T11:30:48;17.40;96.40
46416;DHT22;32620;51.704;7.822;2022-11-12T11:36:05;17.00;98.20
46416;DHT22;32620;51.704;7.822;2022-11-12T11:38:38;17.00;98.40
46416;DHT22;32620;51.704;7.822;2022-11-12T11:43:57;17.10;97.60
46416;DHT22;32620;51.704;7.822;2022-11-12T11:46:57;17.10;96.20
46416;DHT22;32620;51.704;7.822;2022-11-12T11:50:10;17.20;95.10
46416;DHT22;32620;51.704;7.822;2022-11-12T11:52:33;17.30;95.00
46416;DHT22;32620;51.704;7.822;2022-11-12T11:54:45;17.30;94.90
46416;DHT22;32620;51.704;7.822;2022-11-12T11:57:18;17.10;95.70
46416;DHT22;32620;51.704;7.822;2022-11-12T11:59:52;17.20;95.70
46416;DHT22;32620;51.704;7.822;2022-11-12T12:07:54;17.20;97.40
46416;DHT22;32620;51.704;7.822;2022-11-12T12:10:24;17.30;97.50
46416;DHT22;32620;51.704;7.822;2022-11-12T12:13:04;17.30;98.20
46416;DHT22;32620;51.704;7.822;2022-11-12T12:18:31;17.40;98.80
46416;DHT22;32620;51.704;7.822;2022-11-12T12:21:14;17.30;98.90
46416;DHT22;32620;51.704;7.822;2022-11-12T12:23:42;17.20;99.50
46416;DHT22;32620;51.704;7.822;2022-11-12T12:26:10;16.90;99.50
46416;DHT22;32620;51.704;7.822;2022-11-12T12:31:08;17.10;98.20
46416;DHT22;32620;51.704;7.822;2022-11-12T12:33:36;17.20;97.60
46416;DHT22;32620;51.704;7.822;2022-11-12T12:36:06;16.90;96.70
46416;DHT22;32620;51.704;7.822;2022-11-12T12:41:38;16.90;96.70
46416;DHT22;32620;51.704;7.822;2022-11-12T12:44:04;17.00;96.80
46416;DHT22;32620;51.704;7.822;2022-11-12T12:46:30;17.00;97.30
46416;DHT22;32620;51.704;7.822;2022-11-12T12:48:57;17.20;97.10
46416;DHT22;32620;51.704;7.822;2022-11-12T12:51:23;17.10;96.80
46416;DHT22;32620;51.704;7.822;2022-11-12T12:53:52;17.20;97.10
46416;DHT22;32620;51.704;7.822;2022-11-12T12:58:59;17.00;97.10
46416;DHT22;32620;51.704;7.822;2022-11-12T13:01:29;16.80;97.00
46416;DHT22;32620;51.704;7.822;2022-11-12T13:03:57;17.00;97.10
46416;DHT22;32620;51.704;7.822;2022-11-12T13:06:25;17.20;97.30
46416;DHT22;32620;51.704;7.822;2022-11-12T13:09:00;17.30;97.30
46416;DHT22;32620;51.704;7.822;2022-11-12T13:16:58;17.30;96.60
46416;DHT22;32620;51.704;7.822;2022-11-12T13:19:26;17.10;95.50
46416;DHT22;32620;51.704;7.822;2022-11-12T13:22:27;17.00;96.10
46416;DHT22;32620;51.704;7.822;2022-11-12T13:32:57;16.80;97.40
46416;DHT22;32620;51.704;7.822;2022-11-12T13:40:50;16.80;98.70
46416;DHT22;32620;51.704;7.822;2022-11-12T13:43:19;16.70;98.70
46416;DHT22;32620;51.704;7.822;2022-11-12T13:45:50;16.70;98.60
46416;DHT22;32620;51.704;7.822;2022-11-12T13:48:17;16.50;99.90
46416;DHT22;32620;51.704;7.822;2022-11-12T13:50:48;16.50;99.60
46416;DHT22;32620;51.704;7.822;2022-11-12T13:53:16;16.40;99.30
46416;DHT22;32620;51.704;7.822;2022-11-12T13:55:51;16.40;99.50
46416;DHT22;32620;51.704;7.822;2022-11-12T13:58:17;16.50;99.90
46416;DHT22;32620;51.704;7.822;2022-11-12T14:00:51;16.50;99.90
46416;DHT22;32620;51.704;7.822;2022-11-12T14:03:17;16.40;99.90
46416;DHT22;32620;51.704;7.822;2022-11-12T14:05:45;16.30;99.90
46416;DHT22;32620;51.704;7.822;2022-11-12T14:08:16;16.30;99.90
46416;DHT22;32620;51.704;7.822;2022-11-12T14:10:46;16.30;99.90
46416;DHT22;32620;51.704;7.822;2022-11-12T14:13:21;16.30;99.90
46416;DHT22;32620;51.704;7.822;2022-11-12T14:15:56;16.30;99.90
46416;DHT22;32620;51.704;7.822;2022-11-12T14:18:30;16.30;99.90
46416;DHT22;32620;51.704;7.822;2022-11-12T14:20:57;16.30;99.90
46416;DHT22;32620;51.704;7.822;2022-11-12T14:23:28;16.30;99.90
46416;DHT22;32620;51.704;7.822;2022-11-12T14:25:54;16.30;99.90
46416;DHT22;32620;51.704;7.822;2022-11-12T14:28:29;16.30;99.90
46416;DHT22;32620;51.704;7.822;2022-11-12T14:30:55;16.20;99.90
46416;DHT22;32620;51.704;7.822;2022-11-12T14:33:22;16.10;99.90
46416;DHT22;32620;51.704;7.822;2022-11-12T14:35:48;16.10;99.90
46416;DHT22;32620;51.704;7.822;2022-11-12T14:38:17;16.00;99.90
46416;DHT22;32620;51.704;7.822;2022-11-12T14:40:45;16.00;99.90
46416;DHT22;32620;51.704;7.822;2022-11-12T14:43:43;15.80;99.90
46416;DHT22;32620;51.704;7.822;2022-11-12T14:45:58;15.80;99.90
46416;DHT22;32620;51.704;7.822;2022-11-12T14:48:25;15.70;99.90
46416;DHT22;32620;51.704;7.822;2022-11-12T14:50:53;15.60;99.90
46416;DHT22;32620;51.704;7.822;2022-11-12T14:53:22;15.60;99.90
46416;DHT22;32620;51.704;7.822;2022-11-12T14:55:51;15.50;99.90
46416;DHT22;32620;51.704;7.822;2022-11-12T14:58:17;15.40;99.90
46416;DHT22;32620;51.704;7.822;2022-11-12T15:00:44;15.30;99.90
46416;DHT22;32620;51.704;7.822;2022-11-12T15:03:11;15.30;99.90
46416;DHT22;32620;51.704;7.822;2022-11-12T15:06:10;15.20;99.90
46416;DHT22;32620;51.704;7.822;2022-11-12T15:08:32;15.00;99.90
46416;DHT22;32620;51.704;7.822;2022-11-12T15:13:52;14.70;99.90
46416;DHT22;32620;51.704;7.822;2022-11-12T15:16:24;14.50;99.90
46416;DHT22;32620;51.704;7.822;2022-11-12T15:19:06;14.20;99.90
46416;DHT22;32620;51.704;7.822;2022-11-12T15:21:33;13.90;99.90
46416;DHT22;32620;51.704;7.822;2022-11-12T15:24:15;13.70;99.90
46416;DHT22;32620;51.704;7.822;2022-11-12T15:26:44;13.50;99.90
46416;DHT22;32620;51.704;7.822;2022-11-12T15:31:49;13.10;99.90
46416;DHT22;32620;51.704;7.822;2022-11-12T15:34:18;12.90;99.90
46416;DHT22;32620;51.704;7.822;2022-11-12T15:36:45;12.80;99.90
46416;DHT22;32620;51.704;7.822;2022-11-12T15:39:11;12.60;99.90
46416;DHT22;32620;51.704;7.822;2022-11-12T15:41:38;12.40;99.90
46416;DHT22;32620;51.704;7.822;2022-11-12T15:44:04;12.20;99.90
46416;DHT22;32620;51.704;7.822;2022-11-12T15:46:29;12.10;99.90
46416;DHT22;32620;51.704;7.822;2022-11-12T15:48:55;11.90;99.90
46416;DHT22;32620;51.704;7.822;2022-11-12T15:51:21;11.80;99.90
46416;DHT22;32620;51.704;7.822;2022-11-12T15:53:46;11.70;99.90
46416;DHT22;32620;51.704;7.822;2022-11-12T15:56:12;11.50;99.90
46416;DHT22;32620;51.704;7.822;2022-11-12T15:58:39;11.40;99.90
46416;DHT22;32620;51.704;7.822;2022-11-12T16:01:05;11.30;99.90
46416;DHT22;32620;51.704;7.822;2022-11-12T16:03:30;11.20;99.90
46416;DHT22;32620;51.704;7.822;2022-11-12T16:05:56;11.10;99.90
46416;DHT22;32620;51.704;7.822;2022-11-12T16:08:21;11.00;99.90
46416;DHT22;32620;51.704;7.822;2022-11-12T16:10:47;10.90;99.90
46416;DHT22;32620;51.704;7.822;2022-11-12T16:13:15;10.80;99.90
46416;DHT22;32620;51.704;7.822;2022-11-12T16:15:43;10.70;99.90
46416;DHT22;32620;51.704;7.822;2022-11-12T16:18:09;10.60;99.90
46416;DHT22;32620;51.704;7.822;2022-11-12T16:20:36;10.50;99.90
46416;DHT22;32620;51.704;7.822;2022-11-12T16:23:01;10.40;99.90
46416;DHT22;32620;51.704;7.822;2022-11-12T16:25:27;10.30;99.90
46416;DHT22;32620;51.704;7.822;2022-11-12T16:27:54;10.20;99.90
46416;DHT22;32620;51.704;7.822;2022-11-12T16:30:21;10.10;99.90
46416;DHT22;32620;51.704;7.822;2022-11-12T16:32:47;10.10;99.90
46416;DHT22;32620;51.704;7.822;2022-11-12T16:35:13;10.00;99.90
46416;DHT22;32620;51.704;7.822;2022-11-12T16:37:39;9.90;99.90
46416;DHT22;32620;51.704;7.822;2022-11-12T16:40:05;9.80;99.90
46416;DHT22;32620;51.704;7.822;2022-11-12T16:42:31;9.80;99.90
46416;DHT22;32620;51.704;7.822;2022-11-12T16:44:57;9.70;99.90
46416;DHT22;32620;51.704;7.822;2022-11-12T16:47:22;9.60;99.90
46416;DHT22;32620;51.704;7.822;2022-11-12T16:49:48;9.50;99.90
46416;DHT22;32620;51.704;7.822;2022-11-12T16:52:13;9.40;99.90
46416;DHT22;32620;51.704;7.822;2022-11-12T16:54:38;9.30;99.90
46416;DHT22;32620;51.704;7.822;2022-11-12T16:57:04;9.20;99.90